createdAt,value
2022-10-20T00:06:39.979Z,13.40
2022-10-20T00:11:43.022Z,13.50
2022-10-20T00:16:45.176Z,13.50
2022-10-20T00:21:47.221Z,13.40
2022-10-20T00:31:51.767Z,13.40
2022-10-20T00:36:53.818Z,13.30
2022-10-20T00:41:55.905Z,13.30
2022-10-20T00:46:58.395Z,13.20
2022-10-20T00:52:00.406Z,13.20
2022-10-20T01:02:10.550Z,13.20
2022-10-20T01:07:12.560Z,13.10
2022-10-20T01:12:50.845Z,13.00
2022-10-20T01:18:18.988Z,13.00
2022-10-20T01:23:32.954Z,13.00
2022-10-20T01:28:49.708Z,12.90
2022-10-20T01:34:19.204Z,12.90
2022-10-20T01:39:39.635Z,12.90
2022-10-20T01:44:43.152Z,12.80
2022-10-20T01:49:48.277Z,12.80
2022-10-20T01:54:50.320Z,12.80
2022-10-20T02:00:16.723Z,12.80
2022-10-20T02:05:41.885Z,12.80
2022-10-20T02:10:51.040Z,12.80
2022-10-20T02:15:56.645Z,12.70
2022-10-20T02:21:02.309Z,12.70
2022-10-20T02:26:07.079Z,12.70
2022-10-20T02:31:09.759Z,12.60
2022-10-20T02:36:20.772Z,12.70
2022-10-20T02:41:22.899Z,12.70
2022-10-20T02:46:25.032Z,12.70
2022-10-20T02:51:27.079Z,12.90
2022-10-20T02:56:30.988Z,12.70
2022-10-20T03:01:33.433Z,12.70
2022-10-20T03:06:35.955Z,12.70
2022-10-20T03:11:38.026Z,12.60
2022-10-20T03:16:40.090Z,12.70
2022-10-20T03:21:42.140Z,12.50
2022-10-20T03:26:44.173Z,12.60
2022-10-20T03:31:46.349Z,12.80
2022-10-20T03:36:48.483Z,12.60
2022-10-20T03:41:50.469Z,12.50
2022-10-20T03:46:52.505Z,12.60
2022-10-20T03:51:54.510Z,12.70
2022-10-20T03:56:56.755Z,12.70
2022-10-20T04:01:58.949Z,12.70
2022-10-20T04:07:01.058Z,12.60
2022-10-20T04:12:03.137Z,12.70
2022-10-20T04:17:06.359Z,12.70
2022-10-20T04:22:08.460Z,12.80
2022-10-20T04:27:10.533Z,12.80
2022-10-20T04:32:13.302Z,12.80
2022-10-20T04:37:15.324Z,12.80
2022-10-20T04:42:20.626Z,12.80
2022-10-20T04:47:22.640Z,12.80
2022-10-20T04:52:24.802Z,12.80
2022-10-20T04:57:27.484Z,12.80
2022-10-20T05:02:30.430Z,12.80
2022-10-20T05:07:32.486Z,12.80
2022-10-20T05:12:34.852Z,12.80
2022-10-20T05:17:37.314Z,12.80
2022-10-20T05:22:39.652Z,12.80
2022-10-20T05:27:41.936Z,12.80
2022-10-20T05:32:45.407Z,12.80
2022-10-20T05:37:47.415Z,12.70
2022-10-20T05:42:49.541Z,12.90
2022-10-20T05:47:51.544Z,12.70
2022-10-20T05:52:54.013Z,12.70
2022-10-20T06:02:58.633Z,12.70
2022-10-20T06:08:00.697Z,12.60
2022-10-20T06:13:02.746Z,12.60
2022-10-20T06:18:04.763Z,12.60
2022-10-20T06:23:06.749Z,12.60
2022-10-20T06:28:08.758Z,12.60
2022-10-20T06:33:12.313Z,12.60
2022-10-20T06:38:14.367Z,12.70
2022-10-20T06:43:16.423Z,12.80
2022-10-20T06:48:18.450Z,12.80
2022-10-20T06:53:20.441Z,12.80
2022-10-20T06:58:22.594Z,13.00
2022-10-20T07:03:24.637Z,13.40
2022-10-20T07:08:31.714Z,13.20
2022-10-20T07:13:36.217Z,13.40
2022-10-20T07:23:42.112Z,13.60
2022-10-20T07:28:46.965Z,13.80
2022-10-20T07:34:07.232Z,13.90
2022-10-20T07:39:13.299Z,14.00
2022-10-20T07:44:16.011Z,14.20
2022-10-20T07:54:40.178Z,14.50
2022-10-20T07:59:42.348Z,14.60
2022-10-20T08:04:45.543Z,14.60
2022-10-20T08:09:47.607Z,14.80
2022-10-20T08:14:54.599Z,14.90
2022-10-20T08:20:27.394Z,15.10
2022-10-20T08:25:29.583Z,15.10
2022-10-20T08:30:31.622Z,15.30
2022-10-20T08:35:33.628Z,15.40
2022-10-20T08:40:39.537Z,15.40
2022-10-20T08:45:41.703Z,15.60
2022-10-20T08:50:46.668Z,16.10
2022-10-20T08:55:48.886Z,16.10
2022-10-20T09:01:01.099Z,16.40
2022-10-20T09:06:14.056Z,16.60
2022-10-20T09:11:23.896Z,16.70
2022-10-20T09:16:42.201Z,16.90
2022-10-20T09:21:57.514Z,16.90
2022-10-20T09:27:24.727Z,17.30
2022-10-20T09:32:50.923Z,17.50
2022-10-20T09:37:55.019Z,17.50
2022-10-20T09:43:07.520Z,17.70
2022-10-20T09:48:22.106Z,17.70
2022-10-20T09:53:33.019Z,17.90
2022-10-20T09:58:37.780Z,18.20
2022-10-20T10:03:43.310Z,18.30
2022-10-20T10:08:47.381Z,18.40
2022-10-20T10:13:52.782Z,18.50
2022-10-20T10:19:03.838Z,18.60
2022-10-20T10:24:06.223Z,18.80
2022-10-20T10:29:27.268Z,18.80
2022-10-20T10:34:35.063Z,18.90
2022-10-20T10:39:37.238Z,19.20
2022-10-20T10:44:54.668Z,19.20
2022-10-20T10:50:03.609Z,19.20
2022-10-20T10:55:11.899Z,19.40
2022-10-20T11:00:28.870Z,19.50
2022-10-20T11:05:40.967Z,19.20
2022-10-20T11:11:01.102Z,19.30
2022-10-20T11:16:15.202Z,19.20
2022-10-20T11:21:23.220Z,19.20
2022-10-20T11:26:32.681Z,19.20
2022-10-20T11:31:44.157Z,19.20
2022-10-20T11:37:15.601Z,19.30
2022-10-20T11:42:37.246Z,19.50
2022-10-20T11:47:42.603Z,19.20
2022-10-20T11:53:13.573Z,19.20
2022-10-20T11:58:37.294Z,19.20
2022-10-20T12:03:58.122Z,19.10
2022-10-20T12:09:19.606Z,19.30
2022-10-20T12:14:30.366Z,19.10
2022-10-20T12:19:34.576Z,19.10
2022-10-20T12:24:38.046Z,19.20
2022-10-20T12:29:43.136Z,19.10
2022-10-20T12:34:45.415Z,19.10
2022-10-20T12:39:47.927Z,19.10
2022-10-20T12:44:50.764Z,19.10
2022-10-20T12:50:25.848Z,19.00
2022-10-20T12:55:40.979Z,19.00
2022-10-20T13:00:47.029Z,19.00
2022-10-20T13:05:49.244Z,19.00
2022-10-20T13:10:53.866Z,19.10
2022-10-20T13:15:56.453Z,19.00
2022-10-20T13:21:07.186Z,19.30
2022-10-20T13:26:24.759Z,19.10
2022-10-20T13:31:42.701Z,19.10
2022-10-20T13:36:59.680Z,19.10
2022-10-20T13:42:23.263Z,19.10
2022-10-20T13:47:51.846Z,19.00
2022-10-20T13:53:01.767Z,19.00
2022-10-20T13:58:14.540Z,19.00
2022-10-20T14:03:17.960Z,19.00
2022-10-20T14:08:23.565Z,18.90
2022-10-20T14:13:30.335Z,18.90
2022-10-20T14:18:36.047Z,18.80
2022-10-20T14:23:44.189Z,18.80
2022-10-20T14:28:49.783Z,18.80
2022-10-20T14:33:52.986Z,18.80
2022-10-20T14:39:00.103Z,18.80
2022-10-20T14:44:14.670Z,18.80
2022-10-20T14:49:28.975Z,18.60
2022-10-20T14:54:37.660Z,18.70
2022-10-20T15:00:21.791Z,18.60
2022-10-20T15:05:44.321Z,18.60
2022-10-20T15:10:46.921Z,18.50
2022-10-20T15:15:49.359Z,18.50
2022-10-20T15:20:53.486Z,18.60
2022-10-20T15:26:12.838Z,18.50
2022-10-20T15:31:25.104Z,18.60
2022-10-20T15:36:32.803Z,18.60
2022-10-20T15:51:48.083Z,18.50
2022-10-20T15:56:50.354Z,18.50
2022-10-20T16:01:52.458Z,18.50
2022-10-20T16:06:59.156Z,18.40
2022-10-20T16:12:04.140Z,18.50
2022-10-20T16:17:06.182Z,18.50
2022-10-20T16:22:08.462Z,18.50
2022-10-20T16:27:10.525Z,18.50
2022-10-20T16:32:12.577Z,18.40
2022-10-20T16:37:14.689Z,18.30
2022-10-20T16:42:16.811Z,18.30
2022-10-20T16:47:18.939Z,18.30
2022-10-20T16:52:21.131Z,18.30
2022-10-20T16:57:23.231Z,18.20
2022-10-20T17:02:25.351Z,18.20
2022-10-20T17:07:27.775Z,18.20
2022-10-20T17:12:29.836Z,18.10
2022-10-20T17:17:31.919Z,18.20
2022-10-20T17:27:36.848Z,18.10
2022-10-20T17:32:39.441Z,18.10
2022-10-20T17:37:41.847Z,18.10
2022-10-20T17:42:43.874Z,18.00
2022-10-20T17:47:46.181Z,18.00
2022-10-20T17:52:48.243Z,18.00
2022-10-20T17:57:50.346Z,18.00
2022-10-20T18:02:52.445Z,18.00
2022-10-20T18:07:54.649Z,18.20
2022-10-20T18:12:56.669Z,17.90
2022-10-20T18:17:58.716Z,17.90
2022-10-20T18:23:00.806Z,17.90
2022-10-20T18:28:02.979Z,17.80
2022-10-20T18:33:05.027Z,17.80
2022-10-20T18:38:07.873Z,17.70
2022-10-20T18:43:09.925Z,17.80
2022-10-20T18:48:11.989Z,17.70
2022-10-20T18:53:14.307Z,17.60
2022-10-20T18:58:16.409Z,17.70
2022-10-20T19:03:18.466Z,17.70
2022-10-20T19:08:20.574Z,17.70
2022-10-20T19:13:25.893Z,17.60
2022-10-20T19:18:30.003Z,17.80
2022-10-20T19:23:34.125Z,17.70
2022-10-20T19:28:39.934Z,17.70
2022-10-20T19:33:42.139Z,17.70
2022-10-20T19:38:44.926Z,17.70
2022-10-20T19:43:46.985Z,17.70
2022-10-20T19:48:49.929Z,17.60
2022-10-20T19:53:52.071Z,17.70
2022-10-20T19:58:54.804Z,17.70
2022-10-20T20:03:56.932Z,17.90
2022-10-20T20:09:02.171Z,17.70
2022-10-20T20:14:07.912Z,17.70
2022-10-20T20:19:10.215Z,17.90
2022-10-20T20:24:14.193Z,17.70
2022-10-20T20:29:16.594Z,17.80
2022-10-20T20:34:18.682Z,17.70
2022-10-20T20:39:20.847Z,17.70
2022-10-20T20:49:30.159Z,19.50
2022-10-20T20:54:33.168Z,18.00
2022-10-20T20:59:35.474Z,17.80
2022-10-20T21:09:39.975Z,17.80
2022-10-20T21:14:42.125Z,17.90
2022-10-20T21:19:44.243Z,17.90
2022-10-20T21:24:46.286Z,17.90
2022-10-20T21:29:48.426Z,17.90
2022-10-20T21:34:50.519Z,17.90
2022-10-20T21:39:52.532Z,17.90
2022-10-20T21:44:54.629Z,17.80
2022-10-20T21:49:56.677Z,17.90
2022-10-20T21:54:58.723Z,17.70
2022-10-20T22:00:00.748Z,17.90
2022-10-20T22:05:03.353Z,17.90
2022-10-20T22:10:05.708Z,17.70
2022-10-20T22:15:08.259Z,17.90
2022-10-20T22:20:10.813Z,17.90
2022-10-20T22:25:13.310Z,17.80
2022-10-20T22:30:15.443Z,17.80
2022-10-20T22:35:17.521Z,18.00
2022-10-20T22:40:19.857Z,17.90
2022-10-20T22:50:26.193Z,18.00
2022-10-20T22:55:28.345Z,18.00
2022-10-20T23:00:30.433Z,18.00
2022-10-20T23:05:32.554Z,18.10
2022-10-20T23:10:34.620Z,18.00
2022-10-20T23:15:36.708Z,18.00
2022-10-20T23:20:40.027Z,18.00
2022-10-20T23:25:42.954Z,18.20
2022-10-20T23:30:45.365Z,18.20
2022-10-20T23:35:48.116Z,18.20
2022-10-20T23:40:50.065Z,18.10
2022-10-20T23:45:52.408Z,18.10
2022-10-20T23:50:54.715Z,18.10
2022-10-20T23:55:57.161Z,18.10
